createdAt,value
2022-11-20T00:01:21.433Z,98596.75
2022-11-20T00:03:49.369Z,98595.56
2022-11-20T00:06:18.810Z,98590.78
2022-11-20T00:08:47.194Z,98597.47
2022-11-20T00:11:17.240Z,98599.03
2022-11-20T00:13:45.602Z,98599.44
2022-11-20T00:16:15.803Z,98599.56
2022-11-20T00:18:43.643Z,98585.50
2022-11-20T00:21:13.599Z,98587.50
2022-11-20T00:23:42.454Z,98588.09
2022-11-20T00:26:13.447Z,98587.38
2022-11-20T00:28:41.656Z,98576.72
2022-11-20T00:31:19.107Z,98578.44
2022-11-20T00:33:47.460Z,98586.97
2022-11-20T00:36:20.236Z,98583.50
2022-11-20T00:38:48.498Z,98593.06
2022-11-20T00:41:17.222Z,98614.19
2022-11-20T00:43:44.706Z,98610.75
2022-11-20T00:46:23.776Z,98608.31
2022-11-20T00:48:51.519Z,98603.75
2022-11-20T00:51:21.958Z,98585.50
2022-11-20T00:53:49.612Z,98582.97
2022-11-20T00:56:19.339Z,98583.44
2022-11-20T00:58:48.883Z,98591.25
2022-11-20T01:01:27.678Z,98594.31
2022-11-20T01:03:58.193Z,98597.91
2022-11-20T01:06:35.652Z,98598.31
2022-11-20T01:09:08.777Z,98597.75
2022-11-20T01:11:39.282Z,98609.25
2022-11-20T01:14:10.258Z,98599.78
2022-11-20T01:16:40.047Z,98608.88
2022-11-20T01:19:17.311Z,98599.03
2022-11-20T01:21:47.063Z,98601.38
2022-11-20T01:24:16.989Z,98609.50
2022-11-20T01:26:45.710Z,98610.00
2022-11-20T01:29:22.385Z,98607.75
2022-11-20T01:31:50.894Z,98606.63
2022-11-20T01:34:20.349Z,98611.66
2022-11-20T01:36:49.337Z,98607.75
2022-11-20T01:39:23.239Z,98595.81
2022-11-20T01:42:11.139Z,98592.91
2022-11-20T01:44:50.140Z,98583.53
2022-11-20T01:47:36.194Z,98579.50
2022-11-20T01:50:17.390Z,98576.28
2022-11-20T01:53:00.553Z,98563.47
2022-11-20T01:55:33.192Z,98561.91
2022-11-20T01:58:02.315Z,98563.81
2022-11-20T02:00:29.995Z,98567.00
2022-11-20T02:03:08.622Z,98569.03
2022-11-20T02:05:47.553Z,98575.16
2022-11-20T02:08:15.499Z,98580.34
2022-11-20T02:10:42.981Z,98586.47
2022-11-20T02:13:29.050Z,98591.34
2022-11-20T02:15:56.685Z,98583.59
2022-11-20T02:18:25.332Z,98575.50
2022-11-20T02:21:07.434Z,98577.38
2022-11-20T02:23:44.588Z,98583.13
2022-11-20T02:26:17.081Z,98583.94
2022-11-20T02:28:44.661Z,98580.84
2022-11-20T02:31:12.196Z,98578.47
2022-11-20T02:33:39.726Z,98565.56
2022-11-20T02:36:12.568Z,98557.25
2022-11-20T02:38:40.156Z,98558.72
2022-11-20T02:41:07.678Z,98560.16
2022-11-20T02:43:35.287Z,98550.94
2022-11-20T02:46:02.875Z,98546.84
2022-11-20T02:48:33.798Z,98552.16
2022-11-20T02:51:01.983Z,98554.50
2022-11-20T02:53:29.585Z,98563.16
2022-11-20T02:55:57.051Z,98562.59
2022-11-20T02:58:25.267Z,98573.75
2022-11-20T03:00:53.501Z,98567.88
2022-11-20T03:03:21.242Z,98547.81
2022-11-20T03:05:48.708Z,98536.03
2022-11-20T03:08:16.259Z,98544.78
2022-11-20T03:10:44.043Z,98545.72
2022-11-20T03:13:11.562Z,98550.13
2022-11-20T03:15:39.011Z,98541.53
2022-11-20T03:18:06.893Z,98543.16
2022-11-20T03:20:34.943Z,98548.78
2022-11-20T03:23:02.533Z,98557.53
2022-11-20T03:25:30.073Z,98571.38
2022-11-20T03:27:57.576Z,98568.59
2022-11-20T03:30:29.162Z,98573.28
2022-11-20T03:32:58.038Z,98577.44
2022-11-20T03:35:25.606Z,98561.09
2022-11-20T03:37:53.114Z,98566.19
2022-11-20T03:40:20.650Z,98567.84
2022-11-20T03:42:48.258Z,98566.16
2022-11-20T03:45:19.353Z,98565.91
2022-11-20T03:47:47.185Z,98563.97
2022-11-20T03:50:15.195Z,98569.69
2022-11-20T03:52:43.095Z,98577.91
2022-11-20T03:55:10.741Z,98566.22
2022-11-20T03:57:38.356Z,98564.19
2022-11-20T04:00:07.745Z,98570.25
2022-11-20T04:02:35.316Z,98568.53
2022-11-20T04:05:02.838Z,98558.38
2022-11-20T04:07:30.944Z,98552.63
2022-11-20T04:09:58.562Z,98548.63
2022-11-20T04:12:26.091Z,98539.59
2022-11-20T04:14:53.669Z,98547.81
2022-11-20T04:17:21.190Z,98537.91
2022-11-20T04:19:49.321Z,98530.56
2022-11-20T04:22:16.745Z,98522.88
2022-11-20T04:24:44.227Z,98514.81
2022-11-20T04:27:12.027Z,98517.25
2022-11-20T04:29:39.555Z,98519.06
2022-11-20T04:32:07.192Z,98519.44
2022-11-20T04:34:34.721Z,98523.44
2022-11-20T04:37:02.335Z,98517.91
2022-11-20T04:39:29.853Z,98518.59
2022-11-20T04:42:15.919Z,98512.19
2022-11-20T04:44:43.426Z,98507.81
2022-11-20T04:47:10.960Z,98505.59
2022-11-20T04:49:38.525Z,98501.88
2022-11-20T04:52:06.009Z,98499.19
2022-11-20T04:54:33.424Z,98499.19
2022-11-20T04:57:00.935Z,98490.41
2022-11-20T04:59:28.419Z,98492.66
2022-11-20T05:01:56.392Z,98493.66
2022-11-20T05:04:24.185Z,98497.28
2022-11-20T05:06:51.821Z,98498.16
2022-11-20T05:09:19.537Z,98506.94
2022-11-20T05:11:51.226Z,98503.41
2022-11-20T05:14:19.070Z,98503.16
2022-11-20T05:16:46.669Z,98504.44
2022-11-20T05:19:14.179Z,98491.88
2022-11-20T05:21:41.754Z,98496.97
2022-11-20T05:24:09.248Z,98498.56
2022-11-20T05:26:36.933Z,98495.22
2022-11-20T05:29:05.080Z,98480.47
2022-11-20T05:31:32.763Z,98471.59
2022-11-20T05:34:00.232Z,98478.16
2022-11-20T05:36:27.721Z,98476.59
2022-11-20T05:39:00.934Z,98476.28
2022-11-20T05:41:28.754Z,98486.97
2022-11-20T05:43:57.193Z,98490.09
2022-11-20T05:46:28.173Z,98480.19
2022-11-20T05:48:58.355Z,98489.72
2022-11-20T05:51:26.803Z,98498.91
2022-11-20T05:53:54.536Z,98505.66
2022-11-20T05:56:22.964Z,98511.53
2022-11-20T05:58:51.072Z,98510.97
2022-11-20T06:01:25.190Z,98509.22
2022-11-20T06:03:54.630Z,98499.13
2022-11-20T06:06:22.442Z,98507.50
2022-11-20T06:08:50.539Z,98518.44
2022-11-20T06:11:18.567Z,98515.56
2022-11-20T06:13:46.799Z,98508.16
2022-11-20T06:16:17.594Z,98512.56
2022-11-20T06:18:46.349Z,98514.38
2022-11-20T06:21:25.040Z,98508.09
2022-11-20T06:23:53.819Z,98514.00
2022-11-20T06:26:25.130Z,98514.84
2022-11-20T06:28:53.576Z,98513.63
2022-11-20T06:31:25.030Z,98516.84
2022-11-20T06:33:52.907Z,98517.59
2022-11-20T06:36:22.764Z,98534.91
2022-11-20T06:38:50.455Z,98537.78
2022-11-20T06:41:21.253Z,98546.34
2022-11-20T06:43:49.723Z,98548.16
2022-11-20T06:46:18.911Z,98539.25
2022-11-20T06:48:47.454Z,98548.53
2022-11-20T06:51:15.275Z,98536.41
2022-11-20T06:53:42.878Z,98542.31
2022-11-20T06:56:10.588Z,98540.16
2022-11-20T06:58:38.842Z,98533.47
2022-11-20T07:01:15.137Z,98534.94
2022-11-20T07:03:43.598Z,98536.47
2022-11-20T07:06:11.136Z,98535.63
2022-11-20T07:08:38.621Z,98532.50
2022-11-20T07:11:08.282Z,98542.84
2022-11-20T07:13:35.861Z,98548.47
2022-11-20T07:16:06.736Z,98562.19
2022-11-20T07:18:35.177Z,98567.19
2022-11-20T07:21:04.332Z,98565.66
2022-11-20T07:23:32.342Z,98571.03
2022-11-20T07:26:12.637Z,98567.72
2022-11-20T07:28:40.259Z,98566.94
2022-11-20T07:31:08.496Z,98562.09
2022-11-20T07:33:36.191Z,98570.91
2022-11-20T07:36:04.335Z,98562.38
2022-11-20T07:38:32.052Z,98560.03
2022-11-20T07:41:02.416Z,98553.78
2022-11-20T07:43:30.410Z,98558.56
2022-11-20T07:45:59.656Z,98558.81
2022-11-20T07:48:27.454Z,98556.22
2022-11-20T07:50:56.300Z,98552.78
2022-11-20T07:53:24.730Z,98554.78
2022-11-20T07:55:55.036Z,98549.91
2022-11-20T07:58:22.949Z,98543.34
2022-11-20T08:00:50.619Z,98542.03
2022-11-20T08:03:24.386Z,98552.09
2022-11-20T08:05:52.631Z,98540.53
2022-11-20T08:08:20.854Z,98539.41
2022-11-20T08:10:48.416Z,98533.28
2022-11-20T08:13:34.593Z,98534.66
2022-11-20T08:16:02.224Z,98533.13
2022-11-20T08:18:31.794Z,98538.59
2022-11-20T08:21:04.615Z,98540.59
2022-11-20T08:23:32.425Z,98543.06
2022-11-20T08:25:59.925Z,98542.88
2022-11-20T08:28:27.543Z,98544.72
2022-11-20T08:31:00.382Z,98536.97
2022-11-20T08:33:28.329Z,98534.53
2022-11-20T08:36:00.354Z,98543.88
2022-11-20T08:38:27.848Z,98546.38
2022-11-20T08:41:21.948Z,98544.13
2022-11-20T08:43:50.342Z,98553.94
2022-11-20T08:46:18.337Z,98551.56
2022-11-20T08:48:46.298Z,98558.53
2022-11-20T08:51:14.654Z,98558.03
2022-11-20T08:53:42.884Z,98564.78
2022-11-20T08:56:11.098Z,98563.72
2022-11-20T08:59:09.941Z,98568.63
2022-11-20T09:01:28.253Z,98578.09
2022-11-20T09:03:57.929Z,98584.97
2022-11-20T09:06:25.479Z,98588.03
2022-11-20T09:08:54.282Z,98585.81
2022-11-20T09:11:22.992Z,98590.94
2022-11-20T09:13:50.755Z,98581.75
2022-11-20T09:16:18.309Z,98584.03
2022-11-20T09:18:45.861Z,98586.44
2022-11-20T09:21:15.035Z,98588.41
2022-11-20T09:23:42.630Z,98584.94
2022-11-20T09:26:13.089Z,98589.19
2022-11-20T09:28:41.227Z,98588.16
2022-11-20T09:31:20.716Z,98592.41
2022-11-20T09:33:48.238Z,98578.28
2022-11-20T09:36:16.951Z,98570.25
2022-11-20T09:38:44.854Z,98572.34
2022-11-20T09:41:37.774Z,98576.19
2022-11-20T09:44:26.801Z,98577.19
2022-11-20T09:47:12.201Z,98585.53
2022-11-20T09:49:55.049Z,98571.91
2022-11-20T09:52:22.677Z,98584.34
2022-11-20T09:54:51.566Z,98584.06
2022-11-20T09:57:24.405Z,98591.28
2022-11-20T10:00:00.374Z,98581.72
2022-11-20T10:02:41.259Z,98573.59
2022-11-20T10:05:11.975Z,98564.19
2022-11-20T10:08:01.120Z,98560.75
2022-11-20T10:10:43.812Z,98556.25
2022-11-20T10:13:53.992Z,98549.22
2022-11-20T10:16:37.989Z,98540.81
2022-11-20T10:19:22.838Z,98536.47
2022-11-20T10:21:56.334Z,98531.94
2022-11-20T10:24:42.650Z,98527.81
2022-11-20T10:27:44.123Z,98521.50
2022-11-20T10:30:17.492Z,98512.84
2022-11-20T10:32:53.110Z,98512.59
2022-11-20T10:35:27.433Z,98509.13
2022-11-20T10:38:01.726Z,98503.53
2022-11-20T10:40:39.342Z,98497.56
2022-11-20T10:43:13.367Z,98509.28
2022-11-20T10:45:59.480Z,98516.16
2022-11-20T10:48:29.366Z,98516.03
2022-11-20T10:51:21.344Z,98513.50
2022-11-20T10:54:10.333Z,98506.81
2022-11-20T10:56:54.710Z,98500.78
2022-11-20T10:59:27.864Z,98515.56
2022-11-20T11:01:55.383Z,98520.09
2022-11-20T11:04:41.751Z,98529.06
2022-11-20T11:07:18.824Z,98527.88
2022-11-20T11:09:55.129Z,98523.72
2022-11-20T11:12:26.926Z,98527.81
2022-11-20T11:14:57.110Z,98528.56
2022-11-20T11:17:32.766Z,98538.56
2022-11-20T11:20:22.723Z,98534.47
2022-11-20T11:22:53.614Z,98540.41
2022-11-20T11:25:23.997Z,98545.34
2022-11-20T11:27:53.440Z,98548.53
2022-11-20T11:30:21.930Z,98554.94
2022-11-20T11:32:49.849Z,98557.41
2022-11-20T11:35:26.623Z,98553.19
2022-11-20T11:38:03.119Z,98550.38
2022-11-20T11:40:34.098Z,98545.16
2022-11-20T11:43:06.398Z,98537.78
2022-11-20T11:45:33.958Z,98535.44
2022-11-20T11:48:04.276Z,98531.31
2022-11-20T11:50:32.762Z,98527.56
2022-11-20T11:53:06.029Z,98516.13
2022-11-20T11:55:58.437Z,98509.19
2022-11-20T11:58:49.291Z,98513.53
2022-11-20T12:01:35.470Z,98520.16
2022-11-20T12:04:12.034Z,98522.72
2022-11-20T12:06:45.130Z,98523.28
2022-11-20T12:09:13.484Z,98521.50
2022-11-20T12:12:06.108Z,98521.56
2022-11-20T12:14:33.577Z,98524.94
2022-11-20T12:17:02.913Z,98523.25
2022-11-20T12:19:34.518Z,98530.97
2022-11-20T12:22:18.415Z,98527.03
2022-11-20T12:25:10.923Z,98517.41
2022-11-20T12:27:46.235Z,98511.59
2022-11-20T12:30:15.628Z,98505.13
2022-11-20T12:33:20.099Z,98508.56
2022-11-20T12:36:00.182Z,98503.66
2022-11-20T12:38:46.707Z,98495.91
2022-11-20T12:41:54.625Z,98507.66
2022-11-20T12:44:55.883Z,98502.47
2022-11-20T12:47:37.308Z,98501.75
2022-11-20T12:50:29.277Z,98511.69
2022-11-20T12:53:17.260Z,98499.53
2022-11-20T12:55:56.589Z,98496.28
2022-11-20T12:58:38.676Z,98505.78
2022-11-20T13:01:43.448Z,98505.19
2022-11-20T13:04:17.087Z,98507.91
2022-11-20T13:06:45.640Z,98509.06
2022-11-20T13:09:18.338Z,98512.34
2022-11-20T13:12:04.178Z,98512.38
2022-11-20T13:14:41.492Z,98510.47
2022-11-20T13:17:23.658Z,98518.00
2022-11-20T13:19:55.021Z,98508.38
2022-11-20T13:22:31.099Z,98507.94
2022-11-20T13:24:58.726Z,98508.16
2022-11-20T13:27:26.310Z,98502.25
2022-11-20T13:30:15.834Z,98503.09
2022-11-20T13:33:24.075Z,98493.91
2022-11-20T13:35:59.413Z,98488.94
2022-11-20T13:38:30.023Z,98492.53
2022-11-20T13:41:25.498Z,98477.50
2022-11-20T13:43:53.786Z,98475.66
2022-11-20T13:46:25.493Z,98471.47
2022-11-20T13:48:55.309Z,98473.94
2022-11-20T13:51:23.270Z,98469.78
2022-11-20T13:54:41.550Z,98479.91
2022-11-20T13:57:35.176Z,98461.25
2022-11-20T14:00:21.094Z,98471.16
2022-11-20T14:03:06.821Z,98467.28
2022-11-20T14:05:39.771Z,98463.75
2022-11-20T14:08:14.965Z,98462.50
2022-11-20T14:10:42.661Z,98460.94
2022-11-20T14:13:21.538Z,98464.38
2022-11-20T14:15:57.972Z,98465.03
2022-11-20T14:18:27.467Z,98474.19
2022-11-20T14:20:55.362Z,98469.66
2022-11-20T14:23:30.574Z,98474.31
2022-11-20T14:25:58.320Z,98480.22
2022-11-20T14:28:28.661Z,98478.94
2022-11-20T14:30:57.733Z,98487.22
2022-11-20T14:33:27.888Z,98483.81
2022-11-20T14:35:58.501Z,98486.25
2022-11-20T14:38:30.294Z,98489.56
2022-11-20T14:41:18.854Z,98486.28
2022-11-20T14:43:57.888Z,98493.81
2022-11-20T14:46:25.980Z,98491.00
2022-11-20T14:48:57.430Z,98492.75
2022-11-20T14:51:32.713Z,98490.06
2022-11-20T14:54:31.003Z,98497.19
2022-11-20T14:57:01.147Z,98505.53
2022-11-20T14:59:32.532Z,98503.56
2022-11-20T15:02:07.348Z,98504.53
2022-11-20T15:04:49.280Z,98502.56
2022-11-20T15:07:41.147Z,98503.94
2022-11-20T15:10:12.907Z,98508.56
2022-11-20T15:12:52.228Z,98513.56
2022-11-20T15:15:42.840Z,98511.00
2022-11-20T15:18:42.595Z,98507.75
2022-11-20T15:21:19.100Z,98511.94
2022-11-20T15:23:46.812Z,98506.47
2022-11-20T15:26:20.182Z,98507.38
2022-11-20T15:28:50.962Z,98511.03
2022-11-20T15:31:22.315Z,98512.22
2022-11-20T15:33:50.648Z,98509.94
2022-11-20T15:36:18.842Z,98509.94
2022-11-20T15:38:46.668Z,98513.28
2022-11-20T15:41:14.386Z,98509.28
2022-11-20T15:43:41.992Z,98515.31
2022-11-20T15:46:15.685Z,98511.47
2022-11-20T15:48:48.213Z,98509.09
2022-11-20T15:51:27.942Z,98508.44
2022-11-20T15:53:56.892Z,98503.31
2022-11-20T15:56:25.114Z,98506.13
2022-11-20T15:58:53.180Z,98496.75
2022-11-20T16:01:23.060Z,98508.22
2022-11-20T16:03:51.000Z,98500.91
2022-11-20T16:06:18.786Z,98495.81
2022-11-20T16:08:47.046Z,98495.53
2022-11-20T16:11:16.415Z,98493.22
2022-11-20T16:14:05.216Z,98491.59
2022-11-20T16:16:38.679Z,98489.72
2022-11-20T16:19:06.486Z,98500.19
2022-11-20T16:21:35.770Z,98496.34
2022-11-20T16:24:06.789Z,98500.69
2022-11-20T16:26:36.649Z,98504.66
2022-11-20T16:29:07.524Z,98501.44
2022-11-20T16:31:35.418Z,98503.97
2022-11-20T16:34:11.511Z,98506.97
2022-11-20T16:36:41.335Z,98508.81
2022-11-20T16:39:09.022Z,98513.22
2022-11-20T16:41:37.854Z,98506.88
2022-11-20T16:44:10.802Z,98506.53
2022-11-20T16:46:40.684Z,98496.13
2022-11-20T16:49:13.906Z,98503.47
2022-11-20T16:51:43.655Z,98491.41
2022-11-20T16:54:15.020Z,98488.69
2022-11-20T16:56:47.992Z,98478.13
2022-11-20T16:59:15.861Z,98480.75
2022-11-20T17:01:44.095Z,98481.16
2022-11-20T17:04:12.145Z,98477.25
2022-11-20T17:06:44.254Z,98478.53
2022-11-20T17:09:13.804Z,98477.47
2022-11-20T17:11:41.532Z,98477.53
2022-11-20T17:14:11.896Z,98467.81
2022-11-20T17:16:39.962Z,98470.16
2022-11-20T17:19:08.305Z,98467.22
2022-11-20T17:21:36.593Z,98463.75
2022-11-20T17:24:09.169Z,98461.56
2022-11-20T17:26:39.026Z,98456.84
2022-11-20T17:29:15.543Z,98455.88
2022-11-20T17:31:44.191Z,98453.44
2022-11-20T17:34:14.375Z,98453.91
2022-11-20T17:36:45.743Z,98456.84
2022-11-20T17:39:15.226Z,98458.25
2022-11-20T17:41:43.289Z,98459.22
2022-11-20T17:44:12.870Z,98442.81
2022-11-20T17:46:41.115Z,98450.19
2022-11-20T17:49:08.916Z,98439.94
2022-11-20T17:51:36.611Z,98430.19
2022-11-20T17:54:07.478Z,98427.38
2022-11-20T17:56:54.734Z,98437.34
2022-11-20T17:59:22.626Z,98430.19
2022-11-20T18:01:50.199Z,98439.03
2022-11-20T18:04:18.100Z,98435.63
2022-11-20T18:06:45.700Z,98436.28
2022-11-20T18:09:13.399Z,98437.28
2022-11-20T18:11:42.580Z,98448.97
2022-11-20T18:14:37.351Z,98451.38
2022-11-20T18:17:08.242Z,98458.34
2022-11-20T18:19:42.592Z,98463.50
2022-11-20T18:22:20.109Z,98468.41
2022-11-20T18:24:47.888Z,98467.03
2022-11-20T18:27:19.328Z,98479.47
2022-11-20T18:29:52.346Z,98478.38
2022-11-20T18:32:21.816Z,98483.22
2022-11-20T18:34:50.254Z,98483.56
2022-11-20T18:37:18.202Z,98482.31
2022-11-20T18:39:46.042Z,98491.22
2022-11-20T18:42:34.192Z,98486.44
2022-11-20T18:45:04.529Z,98490.69
2022-11-20T18:47:37.992Z,98493.31
2022-11-20T18:50:07.969Z,98509.59
2022-11-20T18:52:41.841Z,98514.28
2022-11-20T18:55:10.135Z,98522.69
2022-11-20T18:57:38.140Z,98517.53
2022-11-20T19:00:09.558Z,98522.75
2022-11-20T19:02:42.515Z,98527.91
2022-11-20T19:05:12.954Z,98508.84
2022-11-20T19:07:41.317Z,98510.72
2022-11-20T19:10:09.989Z,98518.38
2022-11-20T19:12:37.707Z,98518.31
2022-11-20T19:15:06.222Z,98523.75
2022-11-20T19:17:34.344Z,98513.25
2022-11-20T19:20:02.479Z,98515.13
2022-11-20T19:22:30.332Z,98518.44
2022-11-20T19:25:00.919Z,98529.06
2022-11-20T19:27:28.763Z,98540.50
2022-11-20T19:30:03.095Z,98540.63
2022-11-20T19:32:32.695Z,98547.28
2022-11-20T19:35:00.724Z,98542.25
2022-11-20T19:37:28.516Z,98548.50
2022-11-20T19:39:59.536Z,98531.78
2022-11-20T19:42:27.325Z,98524.94
2022-11-20T19:44:55.123Z,98522.22
2022-11-20T19:47:23.040Z,98534.78
2022-11-20T19:49:52.721Z,98530.63
2022-11-20T19:52:20.779Z,98526.88
2022-11-20T19:54:48.539Z,98522.81
2022-11-20T19:57:17.229Z,98523.28
2022-11-20T19:59:45.047Z,98513.28
2022-11-20T20:02:13.392Z,98516.25
2022-11-20T20:04:41.146Z,98512.50
2022-11-20T20:07:08.929Z,98512.75
2022-11-20T20:09:36.735Z,98516.63
2022-11-20T20:12:04.933Z,98510.03
2022-11-20T20:14:32.810Z,98496.69
2022-11-20T20:17:00.917Z,98489.28
2022-11-20T20:19:28.730Z,98483.75
2022-11-20T20:21:56.489Z,98481.91
2022-11-20T20:24:24.238Z,98481.16
2022-11-20T20:26:56.845Z,98489.66
2022-11-20T20:29:26.891Z,98487.50
2022-11-20T20:31:54.343Z,98487.44
2022-11-20T20:34:23.432Z,98481.97
2022-11-20T20:36:51.234Z,98472.78
2022-11-20T20:39:19.757Z,98459.25
2022-11-20T20:41:47.543Z,98458.75
2022-11-20T20:44:34.567Z,98457.06
2022-11-20T20:47:02.300Z,98467.78
2022-11-20T20:49:30.066Z,98474.03
2022-11-20T20:51:57.934Z,98469.00
2022-11-20T20:54:29.242Z,98463.69
2022-11-20T20:56:59.293Z,98463.91
2022-11-20T20:59:27.073Z,98471.25
2022-11-20T21:01:54.855Z,98462.53
2022-11-20T21:04:22.968Z,98460.94
2022-11-20T21:06:50.708Z,98464.03
2022-11-20T21:09:20.310Z,98468.00
2022-11-20T21:11:48.151Z,98464.09
2022-11-20T21:14:15.740Z,98471.31
2022-11-20T21:16:44.050Z,98483.03
2022-11-20T21:19:11.708Z,98487.22
2022-11-20T21:21:57.455Z,98475.84
2022-11-20T21:24:33.406Z,98471.25
2022-11-20T21:27:03.182Z,98469.47
2022-11-20T21:29:31.034Z,98466.63
2022-11-20T21:31:58.850Z,98469.00
2022-11-20T21:34:26.831Z,98474.66
2022-11-20T21:36:54.635Z,98479.97
2022-11-20T21:39:22.301Z,98474.66
2022-11-20T21:41:49.842Z,98484.88
2022-11-20T21:44:31.046Z,98488.53
2022-11-20T21:46:59.299Z,98478.78
2022-11-20T21:49:26.992Z,98487.97
2022-11-20T21:51:54.525Z,98482.66
2022-11-20T21:54:22.305Z,98477.25
2022-11-20T21:56:51.004Z,98481.16
2022-11-20T21:59:18.587Z,98479.88
2022-11-20T22:01:46.161Z,98471.63
2022-11-20T22:04:15.405Z,98471.75
2022-11-20T22:06:42.927Z,98467.63
2022-11-20T22:09:11.098Z,98465.25
2022-11-20T22:11:38.625Z,98466.44
2022-11-20T22:14:21.476Z,98458.81
2022-11-20T22:16:50.730Z,98456.81
2022-11-20T22:19:20.571Z,98456.81
2022-11-20T22:21:48.546Z,98460.69
2022-11-20T22:24:20.698Z,98457.97
2022-11-20T22:26:48.791Z,98459.84
2022-11-20T22:29:21.195Z,98448.06
2022-11-20T22:31:51.736Z,98439.34
2022-11-20T22:34:19.229Z,98429.44
2022-11-20T22:36:46.739Z,98431.22
2022-11-20T22:39:14.337Z,98427.44
2022-11-20T22:41:41.860Z,98421.91
2022-11-20T22:44:13.724Z,98418.91
2022-11-20T22:46:41.201Z,98423.94
2022-11-20T22:49:09.220Z,98418.47
2022-11-20T22:51:39.648Z,98400.06
2022-11-20T22:54:07.960Z,98419.59
2022-11-20T22:56:35.448Z,98414.31
2022-11-20T22:59:04.754Z,98414.53
2022-11-20T23:01:34.550Z,98405.59
2022-11-20T23:04:04.909Z,98402.19
2022-11-20T23:06:35.735Z,98402.50
2022-11-20T23:09:05.836Z,98411.81
2022-11-20T23:11:33.513Z,98398.06
2022-11-20T23:14:04.449Z,98385.44
2022-11-20T23:16:33.948Z,98387.09
2022-11-20T23:19:07.922Z,98386.50
2022-11-20T23:21:37.272Z,98392.50
2022-11-20T23:24:05.341Z,98390.06
2022-11-20T23:26:35.739Z,98389.97
2022-11-20T23:29:04.919Z,98388.31
2022-11-20T23:31:34.354Z,98386.88
2022-11-20T23:34:02.032Z,98387.72
2022-11-20T23:36:29.728Z,98391.25
2022-11-20T23:38:57.283Z,98388.88
2022-11-20T23:41:24.927Z,98377.84
2022-11-20T23:43:53.388Z,98383.25
2022-11-20T23:46:21.190Z,98375.00
2022-11-20T23:48:48.719Z,98382.22
2022-11-20T23:51:16.694Z,98381.13
2022-11-20T23:53:44.301Z,98375.50
2022-11-20T23:56:14.639Z,98372.66
2022-11-20T23:58:42.978Z,98370.53
